Terminal Aerodrome Forecast
Issued by NWS Wilmington, OH

Current Version | Previous Version | Graphics & Text | Print | Product List | Glossary On
Versions: 1 2 3 4 5 6 7 8 9 10 11 12 13 14 15 16 17 18 19 20 21 22 23 24
000
FTUS41 KILN 262339
TAFILN
TAF
KILN 262339Z 2700/2724 18004KT P6SM SCT250
     FM270300 18007KT P6SM VCTS BKN090CB
     FM270400 16008KT P6SM -SHRA BKN080
      TEMPO 2704/2706 4SM TSRA OVC025CB
     FM270600 17006KT P6SM VCTS BKN080CB
     FM270900 19007KT P6SM VCSH BKN016
     FM271100 21006KT P6SM BKN008
     FM271300 25007KT P6SM BKN009
     FM272200 36004KT P6SM BKN040
     FM272300 03004KT P6SM BKN028=

USA.gov is the U.S. government's official web portal to all federal, state and local government web resources and services.